sensor_id;sensor_type;location;lat;lon;timestamp;P1;durP1;ratioP1;P2;durP2;ratioP2
14342;SDS011;7255;53.596;9.960;2022-08-03T00:00:48;6.30;;;5.70;;
14342;SDS011;7255;53.596;9.960;2022-08-03T00:03:14;7.50;;;6.80;;
14342;SDS011;7255;53.596;9.960;2022-08-03T00:05:40;6.30;;;5.75;;
14342;SDS011;7255;53.596;9.960;2022-08-03T00:08:07;6.95;;;6.30;;
14342;SDS011;7255;53.596;9.960;2022-08-03T00:10:33;6.90;;;6.20;;
14342;SDS011;7255;53.596;9.960;2022-08-03T00:13:00;6.07;;;5.57;;
14342;SDS011;7255;53.596;9.960;2022-08-03T00:15:27;6.97;;;6.35;;
14342;SDS011;7255;53.596;9.960;2022-08-03T00:17:53;6.87;;;5.70;;
14342;SDS011;7255;53.596;9.960;2022-08-03T00:20:19;6.55;;;5.90;;
14342;SDS011;7255;53.596;9.960;2022-08-03T00:22:46;6.97;;;6.28;;
14342;SDS011;7255;53.596;9.960;2022-08-03T00:25:13;6.62;;;6.03;;
14342;SDS011;7255;53.596;9.960;2022-08-03T00:27:39;7.25;;;6.65;;
14342;SDS011;7255;53.596;9.960;2022-08-03T00:30:08;5.90;;;5.40;;
14342;SDS011;7255;53.596;9.960;2022-08-03T00:32:34;6.20;;;5.60;;
14342;SDS011;7255;53.596;9.960;2022-08-03T00:35:01;6.90;;;5.90;;
14342;SDS011;7255;53.596;9.960;2022-08-03T00:37:27;6.18;;;5.57;;
14342;SDS011;7255;53.596;9.960;2022-08-03T00:39:53;7.35;;;6.70;;
14342;SDS011;7255;53.596;9.960;2022-08-03T00:42:20;7.07;;;5.72;;
14342;SDS011;7255;53.596;9.960;2022-08-03T00:44:46;7.10;;;6.40;;
14342;SDS011;7255;53.596;9.960;2022-08-03T00:47:14;6.97;;;6.30;;
14342;SDS011;7255;53.596;9.960;2022-08-03T00:49:40;8.60;;;6.78;;
14342;SDS011;7255;53.596;9.960;2022-08-03T00:52:07;6.95;;;6.45;;
14342;SDS011;7255;53.596;9.960;2022-08-03T00:54:34;8.25;;;6.43;;
14342;SDS011;7255;53.596;9.960;2022-08-03T00:57:01;7.45;;;6.62;;
14342;SDS011;7255;53.596;9.960;2022-08-03T00:59:28;6.68;;;6.18;;
14342;SDS011;7255;53.596;9.960;2022-08-03T01:01:55;6.93;;;6.20;;
14342;SDS011;7255;53.596;9.960;2022-08-03T01:04:23;7.68;;;6.93;;
14342;SDS011;7255;53.596;9.960;2022-08-03T01:06:49;7.37;;;6.25;;
14342;SDS011;7255;53.596;9.960;2022-08-03T01:09:26;7.05;;;6.28;;
14342;SDS011;7255;53.596;9.960;2022-08-03T01:12:06;7.28;;;6.65;;
14342;SDS011;7255;53.596;9.960;2022-08-03T01:14:40;6.57;;;5.93;;
14342;SDS011;7255;53.596;9.960;2022-08-03T01:17:11;8.70;;;6.47;;
14342;SDS011;7255;53.596;9.960;2022-08-03T01:19:43;8.90;;;6.10;;
14342;SDS011;7255;53.596;9.960;2022-08-03T01:22:22;8.60;;;6.78;;
14342;SDS011;7255;53.596;9.960;2022-08-03T01:25:05;8.23;;;6.72;;
14342;SDS011;7255;53.596;9.960;2022-08-03T01:27:38;7.00;;;6.40;;
14342;SDS011;7255;53.596;9.960;2022-08-03T01:30:17;6.97;;;6.37;;
14342;SDS011;7255;53.596;9.960;2022-08-03T01:32:45;6.68;;;6.07;;
14342;SDS011;7255;53.596;9.960;2022-08-03T01:35:16;7.62;;;6.55;;
14342;SDS011;7255;53.596;9.960;2022-08-03T01:37:48;6.75;;;6.15;;
14342;SDS011;7255;53.596;9.960;2022-08-03T01:40:18;7.00;;;6.30;;
14342;SDS011;7255;53.596;9.960;2022-08-03T01:42:47;7.40;;;6.32;;
14342;SDS011;7255;53.596;9.960;2022-08-03T01:45:15;6.80;;;6.30;;
14342;SDS011;7255;53.596;9.960;2022-08-03T01:47:46;8.38;;;7.07;;
14342;SDS011;7255;53.596;9.960;2022-08-03T01:50:14;6.65;;;6.05;;
14342;SDS011;7255;53.596;9.960;2022-08-03T01:52:46;8.55;;;6.68;;
14342;SDS011;7255;53.596;9.960;2022-08-03T01:55:13;6.50;;;5.70;;
14342;SDS011;7255;53.596;9.960;2022-08-03T01:57:43;6.68;;;6.07;;
14342;SDS011;7255;53.596;9.960;2022-08-03T02:00:12;6.95;;;6.22;;
14342;SDS011;7255;53.596;9.960;2022-08-03T02:02:40;6.85;;;5.70;;
14342;SDS011;7255;53.596;9.960;2022-08-03T02:05:09;6.12;;;5.65;;
14342;SDS011;7255;53.596;9.960;2022-08-03T02:07:36;6.65;;;6.12;;
14342;SDS011;7255;53.596;9.960;2022-08-03T02:10:06;6.75;;;6.12;;
14342;SDS011;7255;53.596;9.960;2022-08-03T02:12:34;7.20;;;6.50;;
14342;SDS011;7255;53.596;9.960;2022-08-03T02:15:03;6.97;;;6.12;;
14342;SDS011;7255;53.596;9.960;2022-08-03T02:17:31;7.78;;;6.20;;
14342;SDS011;7255;53.596;9.960;2022-08-03T02:20:00;6.57;;;5.85;;
14342;SDS011;7255;53.596;9.960;2022-08-03T02:22:28;6.80;;;6.07;;
14342;SDS011;7255;53.596;9.960;2022-08-03T02:24:56;7.37;;;6.65;;
14342;SDS011;7255;53.596;9.960;2022-08-03T02:27:23;7.28;;;6.65;;
14342;SDS011;7255;53.596;9.960;2022-08-03T02:29:54;6.90;;;6.30;;
14342;SDS011;7255;53.596;9.960;2022-08-03T02:32:28;7.03;;;6.40;;
14342;SDS011;7255;53.596;9.960;2022-08-03T02:34:57;7.18;;;6.43;;
14342;SDS011;7255;53.596;9.960;2022-08-03T02:37:27;6.72;;;6.12;;
14342;SDS011;7255;53.596;9.960;2022-08-03T02:40:02;7.07;;;6.32;;
14342;SDS011;7255;53.596;9.960;2022-08-03T02:42:32;7.30;;;6.68;;
14342;SDS011;7255;53.596;9.960;2022-08-03T02:45:00;7.75;;;6.30;;
14342;SDS011;7255;53.596;9.960;2022-08-03T02:47:30;6.30;;;5.78;;
14342;SDS011;7255;53.596;9.960;2022-08-03T02:49:58;6.37;;;5.80;;
14342;SDS011;7255;53.596;9.960;2022-08-03T02:52:27;6.28;;;5.78;;
14342;SDS011;7255;53.596;9.960;2022-08-03T02:54:58;7.43;;;6.65;;
14342;SDS011;7255;53.596;9.960;2022-08-03T02:57:26;6.93;;;6.32;;
14342;SDS011;7255;53.596;9.960;2022-08-03T02:59:55;6.97;;;6.47;;
14342;SDS011;7255;53.596;9.960;2022-08-03T03:02:23;6.78;;;6.22;;
14342;SDS011;7255;53.596;9.960;2022-08-03T03:04:50;6.87;;;6.28;;
14342;SDS011;7255;53.596;9.960;2022-08-03T03:07:18;8.35;;;6.47;;
14342;SDS011;7255;53.596;9.960;2022-08-03T03:09:46;6.87;;;6.30;;
14342;SDS011;7255;53.596;9.960;2022-08-03T03:12:13;7.10;;;6.22;;
14342;SDS011;7255;53.596;9.960;2022-08-03T03:14:41;6.87;;;6.28;;
14342;SDS011;7255;53.596;9.960;2022-08-03T03:17:08;7.10;;;6.50;;
14342;SDS011;7255;53.596;9.960;2022-08-03T03:19:36;7.60;;;6.90;;
14342;SDS011;7255;53.596;9.960;2022-08-03T03:22:04;6.95;;;6.35;;
14342;SDS011;7255;53.596;9.960;2022-08-03T03:24:33;6.95;;;6.25;;
14342;SDS011;7255;53.596;9.960;2022-08-03T03:27:03;7.95;;;6.62;;
14342;SDS011;7255;53.596;9.960;2022-08-03T03:29:30;7.05;;;6.43;;
14342;SDS011;7255;53.596;9.960;2022-08-03T03:31:58;6.65;;;6.15;;
14342;SDS011;7255;53.596;9.960;2022-08-03T03:34:26;17.83;;;10.30;;
14342;SDS011;7255;53.596;9.960;2022-08-03T03:36:54;7.95;;;7.15;;
14342;SDS011;7255;53.596;9.960;2022-08-03T03:39:20;7.28;;;6.57;;
14342;SDS011;7255;53.596;9.960;2022-08-03T03:41:47;7.10;;;6.40;;
14342;SDS011;7255;53.596;9.960;2022-08-03T03:44:15;6.85;;;6.35;;
14342;SDS011;7255;53.596;9.960;2022-08-03T03:46:41;6.78;;;6.12;;
14342;SDS011;7255;53.596;9.960;2022-08-03T03:49:08;7.00;;;6.47;;
14342;SDS011;7255;53.596;9.960;2022-08-03T03:51:35;8.35;;;7.57;;
14342;SDS011;7255;53.596;9.960;2022-08-03T03:54:03;8.88;;;8.05;;
14342;SDS011;7255;53.596;9.960;2022-08-03T03:56:31;8.20;;;7.43;;
14342;SDS011;7255;53.596;9.960;2022-08-03T03:58:57;7.65;;;6.78;;
14342;SDS011;7255;53.596;9.960;2022-08-03T04:01:25;8.55;;;7.82;;
14342;SDS011;7255;53.596;9.960;2022-08-03T04:03:51;7.25;;;6.65;;
14342;SDS011;7255;53.596;9.960;2022-08-03T04:06:17;7.72;;;7.10;;
14342;SDS011;7255;53.596;9.960;2022-08-03T04:09:02;7.12;;;6.62;;
14342;SDS011;7255;53.596;9.960;2022-08-03T04:11:48;7.20;;;6.60;;
14342;SDS011;7255;53.596;9.960;2022-08-03T04:14:17;7.53;;;6.90;;
14342;SDS011;7255;53.596;9.960;2022-08-03T04:16:47;7.43;;;6.82;;
14342;SDS011;7255;53.596;9.960;2022-08-03T04:19:16;7.80;;;6.97;;
14342;SDS011;7255;53.596;9.960;2022-08-03T04:21:48;7.62;;;6.93;;
14342;SDS011;7255;53.596;9.960;2022-08-03T04:24:16;7.70;;;7.10;;
14342;SDS011;7255;53.596;9.960;2022-08-03T04:26:45;9.38;;;6.85;;
14342;SDS011;7255;53.596;9.960;2022-08-03T04:29:14;7.87;;;7.12;;
14342;SDS011;7255;53.596;9.960;2022-08-03T04:31:41;6.85;;;6.25;;
14342;SDS011;7255;53.596;9.960;2022-08-03T04:34:09;7.50;;;6.93;;
14342;SDS011;7255;53.596;9.960;2022-08-03T04:36:37;7.93;;;7.20;;
14342;SDS011;7255;53.596;9.960;2022-08-03T04:39:13;7.82;;;7.20;;
14342;SDS011;7255;53.596;9.960;2022-08-03T04:41:48;7.55;;;6.90;;
14342;SDS011;7255;53.596;9.960;2022-08-03T04:44:17;7.25;;;6.55;;
14342;SDS011;7255;53.596;9.960;2022-08-03T04:46:46;7.62;;;6.93;;
14342;SDS011;7255;53.596;9.960;2022-08-03T04:49:14;7.80;;;7.20;;
14342;SDS011;7255;53.596;9.960;2022-08-03T04:51:41;7.62;;;6.85;;
14342;SDS011;7255;53.596;9.960;2022-08-03T04:54:10;7.72;;;7.12;;
14342;SDS011;7255;53.596;9.960;2022-08-03T04:56:38;7.40;;;6.80;;
14342;SDS011;7255;53.596;9.960;2022-08-03T04:59:04;7.95;;;7.15;;
14342;SDS011;7255;53.596;9.960;2022-08-03T05:01:31;7.87;;;7.18;;
14342;SDS011;7255;53.596;9.960;2022-08-03T05:03:57;7.87;;;7.28;;
14342;SDS011;7255;53.596;9.960;2022-08-03T05:06:25;7.00;;;6.50;;
14342;SDS011;7255;53.596;9.960;2022-08-03T05:08:52;8.13;;;7.43;;
14342;SDS011;7255;53.596;9.960;2022-08-03T05:11:19;7.65;;;7.05;;
14342;SDS011;7255;53.596;9.960;2022-08-03T05:13:45;8.25;;;7.50;;
14342;SDS011;7255;53.596;9.960;2022-08-03T05:16:12;7.62;;;6.93;;
14342;SDS011;7255;53.596;9.960;2022-08-03T05:18:39;7.72;;;6.97;;
14342;SDS011;7255;53.596;9.960;2022-08-03T05:21:06;7.90;;;7.30;;
14342;SDS011;7255;53.596;9.960;2022-08-03T05:23:34;8.00;;;7.30;;
14342;SDS011;7255;53.596;9.960;2022-08-03T05:26:01;7.97;;;7.18;;
14342;SDS011;7255;53.596;9.960;2022-08-03T05:28:28;7.80;;;7.10;;
14342;SDS011;7255;53.596;9.960;2022-08-03T05:30:54;7.47;;;6.75;;
14342;SDS011;7255;53.596;9.960;2022-08-03T05:33:21;8.20;;;7.50;;
14342;SDS011;7255;53.596;9.960;2022-08-03T05:35:47;7.97;;;7.22;;
14342;SDS011;7255;53.596;9.960;2022-08-03T05:38:14;7.97;;;7.05;;
14342;SDS011;7255;53.596;9.960;2022-08-03T05:40:41;7.60;;;6.82;;
14342;SDS011;7255;53.596;9.960;2022-08-03T05:43:08;6.82;;;6.22;;
14342;SDS011;7255;53.596;9.960;2022-08-03T05:45:35;8.60;;;6.65;;
14342;SDS011;7255;53.596;9.960;2022-08-03T05:48:02;7.22;;;6.53;;
14342;SDS011;7255;53.596;9.960;2022-08-03T05:50:29;6.50;;;5.95;;
14342;SDS011;7255;53.596;9.960;2022-08-03T05:52:55;6.50;;;5.85;;
14342;SDS011;7255;53.596;9.960;2022-08-03T05:55:22;6.55;;;5.53;;
14342;SDS011;7255;53.596;9.960;2022-08-03T05:57:50;6.47;;;5.87;;
14342;SDS011;7255;53.596;9.960;2022-08-03T06:00:16;6.35;;;5.75;;
14342;SDS011;7255;53.596;9.960;2022-08-03T06:02:43;5.72;;;5.10;;
14342;SDS011;7255;53.596;9.960;2022-08-03T06:05:09;5.62;;;4.85;;
14342;SDS011;7255;53.596;9.960;2022-08-03T06:07:36;9.43;;;4.90;;
14342;SDS011;7255;53.596;9.960;2022-08-03T06:10:02;7.28;;;5.45;;
14342;SDS011;7255;53.596;9.960;2022-08-03T06:12:30;5.75;;;5.20;;
14342;SDS011;7255;53.596;9.960;2022-08-03T06:15:01;5.20;;;4.80;;
14342;SDS011;7255;53.596;9.960;2022-08-03T06:17:28;8.35;;;4.50;;
14342;SDS011;7255;53.596;9.960;2022-08-03T06:19:55;6.70;;;4.47;;
14342;SDS011;7255;53.596;9.960;2022-08-03T06:22:21;5.07;;;4.62;;
14342;SDS011;7255;53.596;9.960;2022-08-03T06:24:47;5.55;;;4.60;;
14342;SDS011;7255;53.596;9.960;2022-08-03T06:27:13;4.97;;;4.50;;
14342;SDS011;7255;53.596;9.960;2022-08-03T06:29:40;7.53;;;4.60;;
14342;SDS011;7255;53.596;9.960;2022-08-03T06:32:08;7.45;;;4.80;;
14342;SDS011;7255;53.596;9.960;2022-08-03T06:34:34;6.72;;;4.70;;
14342;SDS011;7255;53.596;9.960;2022-08-03T06:37:00;6.65;;;4.93;;
14342;SDS011;7255;53.596;9.960;2022-08-03T06:39:26;4.95;;;4.18;;
14342;SDS011;7255;53.596;9.960;2022-08-03T06:41:53;6.78;;;4.47;;
14342;SDS011;7255;53.596;9.960;2022-08-03T06:44:19;7.10;;;5.18;;
14342;SDS011;7255;53.596;9.960;2022-08-03T06:46:45;4.53;;;4.10;;
14342;SDS011;7255;53.596;9.960;2022-08-03T06:49:13;6.05;;;4.12;;
14342;SDS011;7255;53.596;9.960;2022-08-03T06:51:40;6.97;;;4.15;;
14342;SDS011;7255;53.596;9.960;2022-08-03T06:54:06;4.50;;;3.40;;
14342;SDS011;7255;53.596;9.960;2022-08-03T06:56:32;8.82;;;3.65;;
14342;SDS011;7255;53.596;9.960;2022-08-03T06:58:59;7.37;;;3.90;;
14342;SDS011;7255;53.596;9.960;2022-08-03T07:01:25;3.95;;;3.55;;
14342;SDS011;7255;53.596;9.960;2022-08-03T07:03:51;8.80;;;3.80;;
14342;SDS011;7255;53.596;9.960;2022-08-03T07:06:20;6.53;;;3.70;;
14342;SDS011;7255;53.596;9.960;2022-08-03T07:08:46;4.78;;;3.55;;
14342;SDS011;7255;53.596;9.960;2022-08-03T07:11:12;4.93;;;3.33;;
14342;SDS011;7255;53.596;9.960;2022-08-03T07:13:38;5.12;;;3.47;;
14342;SDS011;7255;53.596;9.960;2022-08-03T07:16:05;5.72;;;3.50;;
14342;SDS011;7255;53.596;9.960;2022-08-03T07:18:32;5.28;;;3.75;;
14342;SDS011;7255;53.596;9.960;2022-08-03T07:20:58;5.43;;;3.58;;
14342;SDS011;7255;53.596;9.960;2022-08-03T07:23:26;6.00;;;3.15;;
14342;SDS011;7255;53.596;9.960;2022-08-03T07:25:52;6.25;;;3.08;;
14342;SDS011;7255;53.596;9.960;2022-08-03T07:28:19;3.78;;;2.90;;
14342;SDS011;7255;53.596;9.960;2022-08-03T07:30:45;3.10;;;2.58;;
14342;SDS011;7255;53.596;9.960;2022-08-03T07:33:12;3.83;;;2.58;;
14342;SDS011;7255;53.596;9.960;2022-08-03T07:35:39;4.18;;;2.58;;
14342;SDS011;7255;53.596;9.960;2022-08-03T07:38:05;2.83;;;2.53;;
14342;SDS011;7255;53.596;9.960;2022-08-03T07:40:33;3.45;;;2.37;;
14342;SDS011;7255;53.596;9.960;2022-08-03T07:42:59;2.60;;;2.40;;
14342;SDS011;7255;53.596;9.960;2022-08-03T07:45:27;2.60;;;2.40;;
14342;SDS011;7255;53.596;9.960;2022-08-03T07:47:54;4.12;;;2.47;;
14342;SDS011;7255;53.596;9.960;2022-08-03T07:50:21;4.37;;;2.97;;
14342;SDS011;7255;53.596;9.960;2022-08-03T07:52:47;4.12;;;2.33;;
14342;SDS011;7255;53.596;9.960;2022-08-03T07:55:15;2.53;;;2.22;;
14342;SDS011;7255;53.596;9.960;2022-08-03T07:57:43;4.85;;;2.40;;
14342;SDS011;7255;53.596;9.960;2022-08-03T08:00:12;3.92;;;2.47;;
14342;SDS011;7255;53.596;9.960;2022-08-03T08:02:40;3.97;;;2.28;;
14342;SDS011;7255;53.596;9.960;2022-08-03T08:05:07;4.85;;;2.10;;
14342;SDS011;7255;53.596;9.960;2022-08-03T08:07:35;3.50;;;2.08;;
14342;SDS011;7255;53.596;9.960;2022-08-03T08:10:02;4.40;;;2.62;;
14342;SDS011;7255;53.596;9.960;2022-08-03T08:12:29;3.33;;;2.22;;
14342;SDS011;7255;53.596;9.960;2022-08-03T08:14:57;2.50;;;1.95;;
14342;SDS011;7255;53.596;9.960;2022-08-03T08:17:23;2.87;;;2.12;;
14342;SDS011;7255;53.596;9.960;2022-08-03T08:19:50;4.72;;;2.60;;
14342;SDS011;7255;53.596;9.960;2022-08-03T08:22:16;2.87;;;2.30;;
14342;SDS011;7255;53.596;9.960;2022-08-03T08:24:43;2.90;;;1.80;;
14342;SDS011;7255;53.596;9.960;2022-08-03T08:27:12;5.00;;;1.92;;
14342;SDS011;7255;53.596;9.960;2022-08-03T08:29:38;2.83;;;2.10;;
14342;SDS011;7255;53.596;9.960;2022-08-03T08:32:06;3.05;;;2.12;;
14342;SDS011;7255;53.596;9.960;2022-08-03T08:34:33;2.60;;;1.95;;
14342;SDS011;7255;53.596;9.960;2022-08-03T08:36:59;3.03;;;2.30;;
14342;SDS011;7255;53.596;9.960;2022-08-03T08:39:26;4.47;;;2.00;;
14342;SDS011;7255;53.596;9.960;2022-08-03T08:41:52;2.62;;;2.00;;
14342;SDS011;7255;53.596;9.960;2022-08-03T08:44:18;3.75;;;1.92;;
14342;SDS011;7255;53.596;9.960;2022-08-03T08:46:45;2.40;;;2.17;;
14342;SDS011;7255;53.596;9.960;2022-08-03T08:49:15;2.37;;;1.98;;
14342;SDS011;7255;53.596;9.960;2022-08-03T08:51:43;4.25;;;2.00;;
14342;SDS011;7255;53.596;9.960;2022-08-03T08:54:12;2.90;;;1.98;;
14342;SDS011;7255;53.596;9.960;2022-08-03T08:56:40;4.35;;;2.60;;
14342;SDS011;7255;53.596;9.960;2022-08-03T08:59:08;6.78;;;2.60;;
14342;SDS011;7255;53.596;9.960;2022-08-03T09:01:35;2.97;;;2.30;;
14342;SDS011;7255;53.596;9.960;2022-08-03T09:04:03;7.60;;;2.53;;
14342;SDS011;7255;53.596;9.960;2022-08-03T09:06:32;5.95;;;2.65;;
14342;SDS011;7255;53.596;9.960;2022-08-03T09:08:59;3.65;;;2.28;;
14342;SDS011;7255;53.596;9.960;2022-08-03T09:11:25;4.45;;;2.58;;
14342;SDS011;7255;53.596;9.960;2022-08-03T09:13:52;2.85;;;1.90;;
14342;SDS011;7255;53.596;9.960;2022-08-03T09:16:19;3.47;;;2.10;;
14342;SDS011;7255;53.596;9.960;2022-08-03T09:18:47;3.08;;;2.28;;
14342;SDS011;7255;53.596;9.960;2022-08-03T09:21:16;5.78;;;1.90;;
14342;SDS011;7255;53.596;9.960;2022-08-03T09:23:45;4.65;;;2.00;;
14342;SDS011;7255;53.596;9.960;2022-08-03T09:26:18;3.03;;;1.98;;
14342;SDS011;7255;53.596;9.960;2022-08-03T09:28:45;4.03;;;1.70;;
14342;SDS011;7255;53.596;9.960;2022-08-03T09:31:12;3.25;;;1.65;;
14342;SDS011;7255;53.596;9.960;2022-08-03T09:33:45;3.62;;;1.75;;
14342;SDS011;7255;53.596;9.960;2022-08-03T09:39:02;3.42;;;2.08;;
14342;SDS011;7255;53.596;9.960;2022-08-03T09:41:30;2.50;;;1.85;;
14342;SDS011;7255;53.596;9.960;2022-08-03T09:43:57;4.90;;;1.95;;
14342;SDS011;7255;53.596;9.960;2022-08-03T09:46:23;2.90;;;2.20;;
14342;SDS011;7255;53.596;9.960;2022-08-03T09:48:50;4.25;;;1.92;;
14342;SDS011;7255;53.596;9.960;2022-08-03T09:51:16;5.37;;;2.12;;
14342;SDS011;7255;53.596;9.960;2022-08-03T09:53:49;2.37;;;1.50;;
14342;SDS011;7255;53.596;9.960;2022-08-03T09:56:17;2.37;;;2.03;;
14342;SDS011;7255;53.596;9.960;2022-08-03T09:58:44;2.83;;;1.70;;
14342;SDS011;7255;53.596;9.960;2022-08-03T10:01:11;11.20;;;2.87;;
14342;SDS011;7255;53.596;9.960;2022-08-03T10:03:39;19.45;;;3.60;;
14342;SDS011;7255;53.596;9.960;2022-08-03T10:06:13;20.98;;;4.32;;
14342;SDS011;7255;53.596;9.960;2022-08-03T10:08:41;11.38;;;3.28;;
14342;SDS011;7255;53.596;9.960;2022-08-03T10:11:07;14.63;;;3.47;;
14342;SDS011;7255;53.596;9.960;2022-08-03T10:13:35;5.35;;;2.08;;
14342;SDS011;7255;53.596;9.960;2022-08-03T10:16:01;4.10;;;1.90;;
14342;SDS011;7255;53.596;9.960;2022-08-03T10:18:30;2.50;;;1.70;;
14342;SDS011;7255;53.596;9.960;2022-08-03T10:20:57;4.00;;;2.10;;
14342;SDS011;7255;53.596;9.960;2022-08-03T10:23:28;3.67;;;1.60;;
14342;SDS011;7255;53.596;9.960;2022-08-03T10:25:59;5.43;;;2.28;;
14342;SDS011;7255;53.596;9.960;2022-08-03T10:28:31;5.15;;;2.12;;
14342;SDS011;7255;53.596;9.960;2022-08-03T10:31:01;5.57;;;1.98;;
14342;SDS011;7255;53.596;9.960;2022-08-03T10:33:32;3.12;;;2.05;;
14342;SDS011;7255;53.596;9.960;2022-08-03T10:36:03;5.18;;;2.05;;
14342;SDS011;7255;53.596;9.960;2022-08-03T10:38:33;5.32;;;1.95;;
14342;SDS011;7255;53.596;9.960;2022-08-03T10:41:03;4.35;;;1.98;;
14342;SDS011;7255;53.596;9.960;2022-08-03T10:43:32;2.87;;;1.70;;
14342;SDS011;7255;53.596;9.960;2022-08-03T10:46:03;5.43;;;2.15;;
14342;SDS011;7255;53.596;9.960;2022-08-03T10:48:32;1.98;;;1.70;;
14342;SDS011;7255;53.596;9.960;2022-08-03T10:51:01;3.58;;;2.08;;
14342;SDS011;7255;53.596;9.960;2022-08-03T10:53:35;2.50;;;1.62;;
14342;SDS011;7255;53.596;9.960;2022-08-03T10:56:02;3.37;;;2.00;;
14342;SDS011;7255;53.596;9.960;2022-08-03T10:58:48;4.82;;;1.55;;
14342;SDS011;7255;53.596;9.960;2022-08-03T11:01:17;3.05;;;1.67;;
14342;SDS011;7255;53.596;9.960;2022-08-03T11:06:43;3.95;;;2.00;;
14342;SDS011;7255;53.596;9.960;2022-08-03T11:09:14;5.95;;;2.37;;
14342;SDS011;7255;53.596;9.960;2022-08-03T11:11:42;2.45;;;1.62;;
14342;SDS011;7255;53.596;9.960;2022-08-03T11:14:10;4.93;;;2.22;;
14342;SDS011;7255;53.596;9.960;2022-08-03T11:16:40;8.57;;;2.15;;
14342;SDS011;7255;53.596;9.960;2022-08-03T11:19:11;5.00;;;2.12;;
14342;SDS011;7255;53.596;9.960;2022-08-03T11:21:51;3.20;;;1.67;;
14342;SDS011;7255;53.596;9.960;2022-08-03T11:27:29;4.60;;;1.80;;
14342;SDS011;7255;53.596;9.960;2022-08-03T11:29:57;4.50;;;2.10;;
14342;SDS011;7255;53.596;9.960;2022-08-03T11:35:25;2.95;;;1.80;;
14342;SDS011;7255;53.596;9.960;2022-08-03T11:38:11;5.28;;;1.92;;
14342;SDS011;7255;53.596;9.960;2022-08-03T11:40:39;2.67;;;1.85;;
14342;SDS011;7255;53.596;9.960;2022-08-03T11:43:08;4.57;;;2.00;;
14342;SDS011;7255;53.596;9.960;2022-08-03T11:45:35;6.55;;;2.25;;
14342;SDS011;7255;53.596;9.960;2022-08-03T11:48:11;6.35;;;1.80;;
14342;SDS011;7255;53.596;9.960;2022-08-03T11:50:39;3.42;;;1.80;;
14342;SDS011;7255;53.596;9.960;2022-08-03T11:53:10;7.22;;;1.77;;
14342;SDS011;7255;53.596;9.960;2022-08-03T11:55:39;2.60;;;1.70;;
14342;SDS011;7255;53.596;9.960;2022-08-03T11:58:09;2.87;;;1.62;;
14342;SDS011;7255;53.596;9.960;2022-08-03T12:00:40;4.40;;;1.98;;
14342;SDS011;7255;53.596;9.960;2022-08-03T12:03:08;3.87;;;1.62;;
14342;SDS011;7255;53.596;9.960;2022-08-03T12:05:51;2.62;;;1.50;;
14342;SDS011;7255;53.596;9.960;2022-08-03T12:08:28;3.17;;;1.73;;
14342;SDS011;7255;53.596;9.960;2022-08-03T12:10:56;5.55;;;1.77;;
14342;SDS011;7255;53.596;9.960;2022-08-03T12:13:24;4.75;;;1.77;;
14342;SDS011;7255;53.596;9.960;2022-08-03T12:15:51;2.97;;;1.80;;
14342;SDS011;7255;53.596;9.960;2022-08-03T12:18:20;3.55;;;1.75;;
14342;SDS011;7255;53.596;9.960;2022-08-03T12:20:50;5.00;;;1.90;;
14342;SDS011;7255;53.596;9.960;2022-08-03T12:23:18;4.47;;;2.10;;
14342;SDS011;7255;53.596;9.960;2022-08-03T12:25:45;8.55;;;1.55;;
14342;SDS011;7255;53.596;9.960;2022-08-03T12:28:14;4.75;;;1.80;;
14342;SDS011;7255;53.596;9.960;2022-08-03T12:30:43;2.87;;;1.77;;
14342;SDS011;7255;53.596;9.960;2022-08-03T12:33:14;4.35;;;1.75;;
14342;SDS011;7255;53.596;9.960;2022-08-03T12:35:43;4.30;;;1.58;;
14342;SDS011;7255;53.596;9.960;2022-08-03T12:38:12;4.80;;;2.10;;
14342;SDS011;7255;53.596;9.960;2022-08-03T12:40:38;2.55;;;1.58;;
14342;SDS011;7255;53.596;9.960;2022-08-03T12:43:11;6.25;;;1.87;;
14342;SDS011;7255;53.596;9.960;2022-08-03T12:45:38;4.37;;;1.80;;
14342;SDS011;7255;53.596;9.960;2022-08-03T12:48:08;3.37;;;1.65;;
14342;SDS011;7255;53.596;9.960;2022-08-03T12:50:36;3.42;;;2.25;;
14342;SDS011;7255;53.596;9.960;2022-08-03T12:53:05;3.80;;;1.75;;
14342;SDS011;7255;53.596;9.960;2022-08-03T12:55:34;3.75;;;1.65;;
14342;SDS011;7255;53.596;9.960;2022-08-03T12:58:02;3.22;;;1.80;;
14342;SDS011;7255;53.596;9.960;2022-08-03T13:00:30;2.85;;;1.75;;
14342;SDS011;7255;53.596;9.960;2022-08-03T13:02:59;5.32;;;2.20;;
14342;SDS011;7255;53.596;9.960;2022-08-03T13:05:27;4.15;;;2.03;;
14342;SDS011;7255;53.596;9.960;2022-08-03T13:07:55;4.32;;;2.03;;
14342;SDS011;7255;53.596;9.960;2022-08-03T13:10:28;4.72;;;1.75;;
14342;SDS011;7255;53.596;9.960;2022-08-03T13:12:58;4.57;;;2.10;;
14342;SDS011;7255;53.596;9.960;2022-08-03T13:15:27;3.42;;;1.92;;
14342;SDS011;7255;53.596;9.960;2022-08-03T13:17:55;4.40;;;1.85;;
14342;SDS011;7255;53.596;9.960;2022-08-03T13:20:21;4.32;;;2.05;;
14342;SDS011;7255;53.596;9.960;2022-08-03T13:22:48;4.18;;;1.85;;
14342;SDS011;7255;53.596;9.960;2022-08-03T13:25:14;3.75;;;2.20;;
14342;SDS011;7255;53.596;9.960;2022-08-03T13:27:41;5.03;;;1.87;;
14342;SDS011;7255;53.596;9.960;2022-08-03T13:30:09;3.37;;;1.90;;
14342;SDS011;7255;53.596;9.960;2022-08-03T13:32:35;2.55;;;1.80;;
14342;SDS011;7255;53.596;9.960;2022-08-03T13:35:02;3.90;;;1.62;;
14342;SDS011;7255;53.596;9.960;2022-08-03T13:37:29;3.58;;;1.55;;
14342;SDS011;7255;53.596;9.960;2022-08-03T13:39:56;3.42;;;1.60;;
14342;SDS011;7255;53.596;9.960;2022-08-03T13:42:23;4.75;;;1.75;;
14342;SDS011;7255;53.596;9.960;2022-08-03T13:44:49;4.55;;;1.60;;
14342;SDS011;7255;53.596;9.960;2022-08-03T13:47:17;4.50;;;1.65;;
14342;SDS011;7255;53.596;9.960;2022-08-03T13:49:44;3.92;;;1.58;;
14342;SDS011;7255;53.596;9.960;2022-08-03T13:52:10;4.00;;;2.20;;
14342;SDS011;7255;53.596;9.960;2022-08-03T13:54:36;3.10;;;1.80;;
14342;SDS011;7255;53.596;9.960;2022-08-03T13:57:02;4.47;;;1.62;;
14342;SDS011;7255;53.596;9.960;2022-08-03T13:59:29;3.80;;;2.00;;
14342;SDS011;7255;53.596;9.960;2022-08-03T14:01:56;5.05;;;1.70;;
14342;SDS011;7255;53.596;9.960;2022-08-03T14:04:23;3.70;;;1.77;;
14342;SDS011;7255;53.596;9.960;2022-08-03T14:06:50;4.78;;;1.92;;
14342;SDS011;7255;53.596;9.960;2022-08-03T14:09:16;3.10;;;1.70;;
14342;SDS011;7255;53.596;9.960;2022-08-03T14:11:43;2.97;;;1.52;;
14342;SDS011;7255;53.596;9.960;2022-08-03T14:14:09;6.45;;;2.10;;
14342;SDS011;7255;53.596;9.960;2022-08-03T14:16:36;2.60;;;1.80;;
14342;SDS011;7255;53.596;9.960;2022-08-03T14:19:02;2.78;;;1.60;;
14342;SDS011;7255;53.596;9.960;2022-08-03T14:21:31;5.00;;;2.20;;
14342;SDS011;7255;53.596;9.960;2022-08-03T14:23:58;3.00;;;1.58;;
14342;SDS011;7255;53.596;9.960;2022-08-03T14:26:24;4.28;;;1.80;;
14342;SDS011;7255;53.596;9.960;2022-08-03T14:28:50;5.47;;;1.80;;
14342;SDS011;7255;53.596;9.960;2022-08-03T14:31:17;2.58;;;1.92;;
14342;SDS011;7255;53.596;9.960;2022-08-03T14:33:43;4.65;;;2.10;;
14342;SDS011;7255;53.596;9.960;2022-08-03T14:36:09;4.12;;;2.37;;
14342;SDS011;7255;53.596;9.960;2022-08-03T14:38:37;5.80;;;2.00;;
14342;SDS011;7255;53.596;9.960;2022-08-03T14:41:03;2.22;;;1.75;;
14342;SDS011;7255;53.596;9.960;2022-08-03T14:43:29;2.55;;;1.87;;
14342;SDS011;7255;53.596;9.960;2022-08-03T14:45:56;5.07;;;2.30;;
14342;SDS011;7255;53.596;9.960;2022-08-03T14:48:22;3.80;;;1.70;;
14342;SDS011;7255;53.596;9.960;2022-08-03T14:50:51;5.35;;;1.87;;
14342;SDS011;7255;53.596;9.960;2022-08-03T14:53:19;4.32;;;1.92;;
14342;SDS011;7255;53.596;9.960;2022-08-03T14:55:46;4.40;;;1.87;;
14342;SDS011;7255;53.596;9.960;2022-08-03T14:58:13;3.70;;;1.80;;
14342;SDS011;7255;53.596;9.960;2022-08-03T15:00:39;5.80;;;1.87;;
14342;SDS011;7255;53.596;9.960;2022-08-03T15:03:06;5.60;;;2.15;;
14342;SDS011;7255;53.596;9.960;2022-08-03T15:05:32;3.30;;;1.92;;
14342;SDS011;7255;53.596;9.960;2022-08-03T15:07:58;5.07;;;1.83;;
14342;SDS011;7255;53.596;9.960;2022-08-03T15:10:25;3.70;;;2.03;;
14342;SDS011;7255;53.596;9.960;2022-08-03T15:12:52;6.95;;;1.77;;
14342;SDS011;7255;53.596;9.960;2022-08-03T15:15:19;4.35;;;1.98;;
14342;SDS011;7255;53.596;9.960;2022-08-03T15:17:46;4.22;;;2.00;;